createdAt,value
2023-01-15T00:00:53.503Z,41.90
2023-01-15T00:04:03.680Z,41.90
2023-01-15T00:07:11.542Z,41.90
2023-01-15T00:10:19.863Z,41.90
2023-01-15T00:13:28.938Z,42.00
2023-01-15T00:16:40.535Z,42.00
2023-01-15T00:19:48.495Z,42.00
2023-01-15T00:22:56.549Z,42.00
2023-01-15T00:26:21.738Z,42.00
2023-01-15T00:29:29.858Z,42.00
2023-01-15T00:32:39.123Z,42.00
2023-01-15T00:35:47.359Z,42.00
2023-01-15T00:38:55.963Z,42.10
2023-01-15T00:42:04.067Z,42.70
2023-01-15T00:45:13.938Z,42.00
2023-01-15T00:48:23.220Z,42.00
2023-01-15T00:51:31.180Z,42.10
2023-01-15T00:54:39.379Z,42.00
2023-01-15T00:57:47.456Z,42.00
2023-01-15T01:00:56.144Z,42.00
2023-01-15T01:04:05.898Z,42.00
2023-01-15T01:07:16.259Z,42.00
2023-01-15T01:10:24.267Z,42.00
2023-01-15T01:13:32.019Z,42.30
2023-01-15T01:16:40.667Z,42.00
2023-01-15T01:19:50.122Z,42.00
2023-01-15T01:22:58.167Z,42.00
2023-01-15T01:26:06.619Z,42.00
2023-01-15T01:29:14.464Z,41.90
2023-01-15T01:32:22.681Z,41.90
2023-01-15T01:35:31.908Z,41.90
2023-01-15T01:38:40.029Z,41.90
2023-01-15T01:41:48.390Z,41.80
2023-01-15T01:45:01.012Z,41.80
2023-01-15T01:48:08.991Z,41.80
2023-01-15T01:51:18.430Z,41.80
2023-01-15T01:54:26.785Z,41.80
2023-01-15T01:57:34.836Z,41.90
2023-01-15T02:00:45.648Z,41.80
2023-01-15T02:03:53.748Z,41.90
2023-01-15T02:07:03.452Z,41.90
2023-01-15T02:10:16.158Z,41.90
2023-01-15T02:13:26.362Z,41.90
2023-01-15T02:16:36.526Z,41.90
2023-01-15T02:19:48.713Z,41.90
2023-01-15T02:23:19.838Z,41.90
2023-01-15T02:27:00.919Z,41.90
2023-01-15T02:30:13.100Z,41.90
2023-01-15T02:33:33.799Z,41.90
2023-01-15T02:36:43.193Z,41.90
2023-01-15T02:40:00.849Z,41.90
2023-01-15T02:43:09.441Z,41.90
2023-01-15T02:46:19.521Z,41.80
2023-01-15T02:49:28.587Z,41.80
2023-01-15T02:52:42.276Z,41.80
2023-01-15T02:55:51.516Z,41.80
2023-01-15T02:59:04.620Z,41.80
2023-01-15T03:02:16.597Z,41.80
2023-01-15T03:05:27.979Z,41.70
2023-01-15T03:08:36.061Z,41.70
2023-01-15T03:11:46.129Z,41.70
2023-01-15T03:14:57.915Z,41.70
2023-01-15T03:18:06.507Z,41.70
2023-01-15T03:21:16.591Z,41.70
2023-01-15T03:24:28.558Z,41.70
2023-01-15T03:27:36.569Z,41.70
2023-01-15T03:30:45.910Z,41.70
2023-01-15T03:33:55.201Z,41.70
2023-01-15T03:37:04.594Z,41.70
2023-01-15T03:40:14.409Z,41.70
2023-01-15T03:43:38.611Z,41.60
2023-01-15T03:46:55.369Z,41.60
2023-01-15T03:50:09.887Z,41.60
2023-01-15T03:53:22.226Z,41.60
2023-01-15T03:56:37.397Z,41.60
2023-01-15T03:59:48.063Z,41.60
2023-01-15T04:02:56.322Z,41.60
2023-01-15T04:06:08.249Z,41.60
2023-01-15T04:09:18.201Z,41.50
2023-01-15T04:12:28.000Z,41.50
2023-01-15T04:15:37.560Z,41.50
2023-01-15T04:18:45.717Z,41.60
2023-01-15T04:21:55.031Z,41.50
2023-01-15T04:25:03.050Z,41.50
2023-01-15T04:28:10.992Z,41.50
2023-01-15T04:31:18.819Z,41.50
2023-01-15T04:34:27.166Z,41.50
2023-01-15T04:37:36.654Z,41.50
2023-01-15T04:41:01.630Z,41.50
2023-01-15T04:44:09.429Z,41.50
2023-01-15T04:47:17.137Z,41.50
2023-01-15T04:50:25.144Z,41.40
2023-01-15T04:53:34.562Z,41.40
2023-01-15T04:56:43.320Z,41.40
2023-01-15T04:59:51.022Z,41.40
2023-01-15T05:02:58.832Z,41.40
2023-01-15T05:06:07.266Z,41.40
2023-01-15T05:09:16.683Z,41.40
2023-01-15T05:12:24.857Z,41.40
2023-01-15T05:15:33.222Z,41.40
2023-01-15T05:18:41.177Z,41.40
2023-01-15T05:21:49.273Z,41.40
2023-01-15T05:24:58.743Z,41.40
2023-01-15T05:28:06.943Z,41.40
2023-01-15T05:31:16.210Z,41.30
2023-01-15T05:34:24.008Z,41.30
2023-01-15T05:37:32.124Z,41.30
2023-01-15T05:40:41.507Z,41.30
2023-01-15T05:43:49.542Z,41.30
2023-01-15T05:46:58.581Z,41.30
2023-01-15T05:50:06.881Z,41.30
2023-01-15T05:53:14.611Z,41.30
2023-01-15T05:56:24.017Z,41.30
2023-01-15T05:59:32.600Z,41.30
2023-01-15T06:02:40.884Z,41.20
2023-01-15T06:05:51.653Z,41.20
2023-01-15T06:08:59.947Z,41.20
2023-01-15T06:12:09.474Z,41.20
2023-01-15T06:15:17.397Z,41.20
2023-01-15T06:18:25.423Z,41.10
2023-01-15T06:21:33.169Z,41.10
2023-01-15T06:24:41.226Z,41.10
2023-01-15T06:27:50.631Z,41.10
2023-01-15T06:30:58.762Z,41.00
2023-01-15T06:34:06.661Z,41.10
2023-01-15T06:37:15.107Z,41.10
2023-01-15T06:40:23.756Z,41.10
2023-01-15T06:43:49.983Z,41.00
2023-01-15T06:47:26.685Z,41.10
2023-01-15T06:50:35.166Z,41.00
2023-01-15T06:53:43.005Z,41.00
2023-01-15T06:56:51.168Z,41.00
2023-01-15T07:00:00.670Z,41.00
2023-01-15T07:03:08.743Z,41.00
2023-01-15T07:06:16.712Z,41.00
2023-01-15T07:09:24.794Z,40.90
2023-01-15T07:12:32.655Z,40.90
2023-01-15T07:15:41.971Z,40.90
2023-01-15T07:18:49.815Z,40.90
2023-01-15T07:21:57.817Z,40.90
2023-01-15T07:25:06.905Z,40.90
2023-01-15T07:28:14.637Z,40.90
2023-01-15T07:31:24.101Z,40.90
2023-01-15T07:34:32.115Z,40.90
2023-01-15T07:37:40.144Z,40.90
2023-01-15T07:41:08.472Z,40.90
2023-01-15T07:44:33.978Z,40.90
2023-01-15T07:48:00.591Z,40.80
2023-01-15T07:51:08.356Z,40.80
2023-01-15T07:54:16.480Z,40.80
2023-01-15T07:57:24.529Z,40.80
2023-01-15T08:00:32.445Z,40.80
2023-01-15T08:03:41.952Z,40.70
2023-01-15T08:06:50.025Z,40.80
2023-01-15T08:09:58.300Z,40.80
2023-01-15T08:13:23.680Z,40.70
2023-01-15T08:16:31.553Z,41.40
2023-01-15T08:19:40.950Z,40.70
2023-01-15T08:22:48.971Z,40.70
2023-01-15T08:25:59.729Z,40.70
2023-01-15T08:29:07.708Z,40.80
2023-01-15T08:32:15.494Z,40.70
2023-01-15T08:35:24.636Z,40.70
2023-01-15T08:38:32.445Z,40.70
2023-01-15T08:41:40.367Z,40.70
2023-01-15T08:44:48.461Z,40.70
2023-01-15T08:47:57.820Z,40.70
2023-01-15T08:51:07.534Z,40.70
2023-01-15T08:54:15.702Z,40.70
2023-01-15T08:57:23.546Z,40.70
2023-01-15T09:00:31.967Z,40.70
2023-01-15T09:03:40.090Z,40.70
2023-01-15T09:06:49.811Z,40.70
2023-01-15T09:09:57.922Z,40.70
2023-01-15T09:13:06.207Z,40.70
2023-01-15T09:16:14.078Z,40.70
2023-01-15T09:19:21.971Z,40.70
2023-01-15T09:22:31.390Z,40.70
2023-01-15T09:25:39.588Z,40.70
2023-01-15T09:28:47.535Z,40.70
2023-01-15T09:31:55.631Z,40.70
2023-01-15T09:35:03.779Z,40.70
2023-01-15T09:38:14.061Z,40.70
2023-01-15T09:41:39.894Z,40.70
2023-01-15T09:45:06.459Z,40.70
2023-01-15T09:48:22.071Z,40.70
2023-01-15T09:51:32.761Z,40.70
2023-01-15T09:54:47.856Z,40.70
2023-01-15T09:57:56.474Z,40.70
2023-01-15T10:01:04.772Z,40.70
2023-01-15T10:04:16.602Z,40.70
2023-01-15T10:07:26.663Z,40.70
2023-01-15T10:10:47.586Z,40.70
2023-01-15T10:13:59.754Z,40.70
2023-01-15T10:17:19.695Z,40.70
2023-01-15T10:20:45.336Z,40.70
2023-01-15T10:24:02.663Z,40.60
2023-01-15T10:27:15.570Z,40.70
2023-01-15T10:30:26.603Z,40.60
2023-01-15T10:33:56.375Z,40.60
2023-01-15T10:37:06.856Z,40.60
2023-01-15T10:40:27.500Z,40.60
2023-01-15T10:43:45.167Z,40.50
2023-01-15T10:46:56.061Z,40.60
2023-01-15T10:50:07.313Z,40.50
2023-01-15T10:53:18.460Z,40.50
2023-01-15T10:56:32.784Z,40.50
2023-01-15T10:59:43.467Z,40.50
2023-01-15T11:03:01.037Z,40.50
2023-01-15T11:06:13.109Z,40.50
2023-01-15T11:09:23.404Z,40.50
2023-01-15T11:12:48.710Z,40.50
2023-01-15T11:16:15.412Z,40.50
2023-01-15T11:19:39.849Z,40.50
2023-01-15T11:22:47.925Z,40.50
2023-01-15T11:25:56.715Z,40.50
2023-01-15T11:29:13.752Z,40.50
2023-01-15T11:32:28.246Z,40.40
2023-01-15T11:35:36.089Z,40.40
2023-01-15T11:38:45.225Z,40.40
2023-01-15T11:42:17.243Z,40.40
2023-01-15T11:45:43.164Z,40.40
2023-01-15T11:49:09.922Z,40.40
2023-01-15T11:52:18.798Z,40.30
2023-01-15T11:55:27.546Z,40.30
2023-01-15T11:58:41.429Z,40.90
2023-01-15T12:01:54.595Z,40.30
2023-01-15T12:05:04.397Z,40.30
2023-01-15T12:08:18.296Z,40.30
2023-01-15T12:11:35.802Z,40.20
2023-01-15T12:15:06.742Z,40.30
2023-01-15T12:18:31.359Z,40.20
2023-01-15T12:21:49.715Z,40.20
2023-01-15T12:25:22.177Z,40.20
2023-01-15T12:28:31.034Z,40.10
2023-01-15T12:31:39.781Z,40.10
2023-01-15T12:34:50.222Z,40.10
2023-01-15T12:38:00.888Z,40.20
2023-01-15T12:41:10.999Z,40.20
2023-01-15T12:44:38.586Z,40.10
2023-01-15T12:47:49.379Z,40.10
2023-01-15T12:50:58.825Z,40.10
2023-01-15T12:54:09.667Z,40.10
2023-01-15T12:57:19.120Z,40.10
2023-01-15T13:00:28.238Z,40.10
2023-01-15T13:03:49.882Z,40.10
2023-01-15T13:06:59.398Z,40.10
2023-01-15T13:10:12.020Z,40.00
2023-01-15T13:13:22.847Z,40.00
2023-01-15T13:16:41.343Z,40.00
2023-01-15T13:20:05.569Z,40.00
2023-01-15T13:23:23.172Z,39.90
2023-01-15T13:26:46.932Z,39.90
2023-01-15T13:30:16.728Z,39.90
2023-01-15T13:33:27.363Z,39.90
2023-01-15T13:36:40.372Z,39.90
2023-01-15T13:39:48.614Z,40.00
2023-01-15T13:42:57.748Z,39.90
2023-01-15T13:46:05.981Z,39.80
2023-01-15T13:49:20.130Z,39.80
2023-01-15T13:52:29.366Z,39.80
2023-01-15T13:55:38.319Z,39.80
2023-01-15T13:58:55.213Z,39.80
2023-01-15T14:02:03.178Z,39.80
2023-01-15T14:05:32.143Z,39.80
2023-01-15T14:08:41.706Z,39.80
2023-01-15T14:11:59.570Z,39.80
2023-01-15T14:15:39.044Z,39.80
2023-01-15T14:19:08.301Z,39.80
2023-01-15T14:22:29.178Z,39.70
2023-01-15T14:25:44.033Z,39.70
2023-01-15T14:29:26.427Z,39.70
2023-01-15T14:32:45.202Z,39.70
2023-01-15T14:35:53.787Z,39.60
2023-01-15T14:39:02.805Z,39.60
2023-01-15T14:42:31.794Z,39.60
2023-01-15T14:45:40.337Z,39.60
2023-01-15T14:48:49.501Z,39.60
2023-01-15T14:51:57.614Z,39.60
2023-01-15T14:55:06.183Z,39.60
2023-01-15T14:58:17.126Z,39.60
2023-01-15T15:01:31.625Z,39.60
2023-01-15T15:04:44.027Z,39.60
2023-01-15T15:07:53.440Z,39.50
2023-01-15T15:11:01.400Z,40.10
2023-01-15T15:14:09.675Z,39.50
2023-01-15T15:17:20.743Z,39.50
2023-01-15T15:20:35.104Z,39.50
2023-01-15T15:23:44.506Z,39.50
2023-01-15T15:26:52.637Z,39.50
2023-01-15T15:30:05.205Z,39.50
2023-01-15T15:33:17.159Z,39.50
2023-01-15T15:36:28.300Z,39.50
2023-01-15T15:39:41.352Z,39.50
2023-01-15T15:43:09.595Z,39.50
2023-01-15T15:46:42.445Z,39.50
2023-01-15T15:49:50.724Z,39.40
2023-01-15T15:53:04.211Z,39.40
2023-01-15T15:56:12.172Z,39.40
2023-01-15T15:59:26.897Z,39.40
2023-01-15T16:02:36.662Z,39.40
2023-01-15T16:05:46.667Z,39.40
2023-01-15T16:08:56.579Z,39.40
2023-01-15T16:12:07.218Z,39.40
2023-01-15T16:15:16.539Z,39.40
2023-01-15T16:18:26.108Z,39.40
2023-01-15T16:21:35.828Z,39.40
2023-01-15T16:24:54.198Z,39.40
2023-01-15T16:28:02.046Z,39.40
2023-01-15T16:31:10.000Z,39.40
2023-01-15T16:34:19.487Z,39.40
2023-01-15T16:37:30.518Z,39.50
2023-01-15T16:40:40.286Z,39.40
2023-01-15T16:43:52.907Z,39.40
2023-01-15T16:47:01.032Z,39.40
2023-01-15T16:50:29.086Z,39.50
2023-01-15T16:53:41.094Z,39.40
2023-01-15T16:56:52.092Z,39.40
2023-01-15T17:00:02.269Z,39.50
2023-01-15T17:03:12.645Z,39.50
2023-01-15T17:06:21.928Z,39.50
2023-01-15T17:09:31.018Z,39.40
2023-01-15T17:12:40.971Z,39.50
2023-01-15T17:15:49.304Z,39.50
2023-01-15T17:18:57.561Z,39.50
2023-01-15T17:22:05.587Z,39.50
2023-01-15T17:25:22.569Z,39.40
2023-01-15T17:28:31.781Z,39.40
2023-01-15T17:31:40.183Z,39.40
2023-01-15T17:34:48.674Z,39.40
2023-01-15T17:37:57.189Z,39.40
2023-01-15T17:41:07.147Z,39.40
2023-01-15T17:44:16.769Z,39.50
2023-01-15T17:47:24.940Z,39.50
2023-01-15T17:50:33.081Z,40.00
2023-01-15T17:53:41.356Z,39.50
2023-01-15T17:57:18.267Z,39.50
2023-01-15T18:00:46.760Z,39.40
2023-01-15T18:04:12.995Z,39.50
2023-01-15T18:07:21.763Z,39.50
2023-01-15T18:10:29.497Z,39.50
2023-01-15T18:13:37.640Z,39.50
2023-01-15T18:16:46.928Z,39.50
2023-01-15T18:19:55.864Z,39.50
2023-01-15T18:23:03.849Z,39.50
2023-01-15T18:26:11.867Z,39.40
2023-01-15T18:29:20.563Z,39.40
2023-01-15T18:32:30.639Z,39.40
2023-01-15T18:35:38.376Z,39.40
2023-01-15T18:38:47.136Z,39.40
2023-01-15T18:42:12.378Z,39.50
2023-01-15T18:45:37.702Z,39.40
2023-01-15T18:48:46.966Z,39.50
2023-01-15T18:52:08.967Z,39.40
2023-01-15T18:55:17.138Z,39.40
2023-01-15T18:58:25.397Z,39.40
2023-01-15T19:01:33.724Z,39.40
2023-01-15T19:04:43.098Z,39.40
2023-01-15T19:07:51.187Z,39.40
2023-01-15T19:10:59.498Z,39.30
2023-01-15T19:14:27.098Z,39.40
2023-01-15T19:17:52.675Z,39.30
2023-01-15T19:21:06.687Z,39.40
2023-01-15T19:24:14.776Z,39.40
2023-01-15T19:27:22.763Z,39.40
2023-01-15T19:30:32.078Z,39.40
2023-01-15T19:33:40.328Z,39.30
2023-01-15T19:36:49.999Z,39.90
2023-01-15T19:39:57.824Z,39.30
2023-01-15T19:43:23.452Z,39.40
2023-01-15T19:46:48.929Z,39.40
2023-01-15T19:50:14.458Z,39.70
2023-01-15T19:53:23.630Z,39.70
2023-01-15T19:56:31.773Z,39.90
2023-01-15T19:59:40.081Z,39.90
2023-01-15T20:02:49.443Z,39.60
2023-01-15T20:05:57.974Z,39.60
2023-01-15T20:09:07.166Z,39.60
2023-01-15T20:12:32.440Z,39.70
2023-01-15T20:15:42.466Z,39.60
2023-01-15T20:18:50.462Z,39.60
2023-01-15T20:21:58.799Z,39.70
2023-01-15T20:25:09.176Z,39.70
2023-01-15T20:28:16.941Z,39.70
2023-01-15T20:31:25.670Z,39.70
2023-01-15T20:34:36.472Z,39.70
2023-01-15T20:37:44.277Z,39.70
2023-01-15T20:40:53.660Z,39.70
2023-01-15T20:44:18.937Z,39.70
2023-01-15T20:47:45.215Z,39.70
2023-01-15T20:51:02.044Z,39.70
2023-01-15T20:54:10.167Z,39.70
2023-01-15T20:57:19.547Z,39.90
2023-01-15T21:00:27.284Z,39.80
2023-01-15T21:03:35.460Z,39.80
2023-01-15T21:06:43.426Z,39.80
2023-01-15T21:09:51.225Z,39.80
2023-01-15T21:13:00.722Z,39.80
2023-01-15T21:16:09.423Z,39.90
2023-01-15T21:19:17.611Z,39.90
2023-01-15T21:22:25.687Z,39.90
2023-01-15T21:25:33.874Z,40.00
2023-01-15T21:28:44.176Z,40.00
2023-01-15T21:31:53.823Z,40.00
2023-01-15T21:35:01.791Z,40.00
2023-01-15T21:38:09.687Z,40.00
2023-01-15T21:41:17.648Z,40.00
2023-01-15T21:44:32.186Z,40.00
2023-01-15T21:47:41.460Z,40.00
2023-01-15T21:50:49.806Z,40.00
2023-01-15T21:54:00.077Z,40.00
2023-01-15T21:57:08.691Z,40.10
2023-01-15T22:00:20.465Z,40.10
2023-01-15T22:03:28.604Z,40.10
2023-01-15T22:06:37.959Z,40.10
2023-01-15T22:09:46.139Z,40.10
2023-01-15T22:12:54.229Z,40.10
2023-01-15T22:16:04.371Z,40.20
2023-01-15T22:19:14.929Z,40.10
2023-01-15T22:22:22.972Z,40.10
2023-01-15T22:25:30.847Z,40.00
2023-01-15T22:28:39.035Z,40.00
2023-01-15T22:31:48.446Z,40.10
2023-01-15T22:34:56.272Z,40.00
2023-01-15T22:38:04.331Z,40.60
2023-01-15T22:41:12.324Z,40.00
2023-01-15T22:44:20.307Z,40.00
2023-01-15T22:47:29.981Z,40.10
2023-01-15T22:50:38.505Z,40.00
2023-01-15T22:53:46.393Z,40.00
2023-01-15T22:56:54.632Z,40.00
2023-01-15T23:00:02.620Z,40.00
2023-01-15T23:03:12.028Z,40.00
2023-01-15T23:06:20.525Z,40.00
2023-01-15T23:09:28.374Z,40.00
2023-01-15T23:12:36.502Z,40.00
2023-01-15T23:15:44.611Z,40.00
2023-01-15T23:18:53.857Z,39.90
2023-01-15T23:22:01.753Z,39.90
2023-01-15T23:25:10.178Z,39.90
2023-01-15T23:28:18.031Z,39.90
2023-01-15T23:31:26.166Z,39.90
2023-01-15T23:34:35.357Z,39.90
2023-01-15T23:37:43.350Z,39.90
2023-01-15T23:40:51.523Z,39.90
2023-01-15T23:44:16.995Z,39.90
2023-01-15T23:47:24.870Z,39.90
2023-01-15T23:50:34.308Z,39.90
2023-01-15T23:53:42.526Z,39.90
2023-01-15T23:56:50.651Z,39.90
2023-01-15T23:59:58.755Z,39.90
